sensor_id;sensor_type;location;lat;lon;timestamp;P1;durP1;ratioP1;P2;durP2;ratioP2
19946;SDS011;10135;50.702;7.276;2022-10-20T05:30:27;5.33;;;4.57;;
19946;SDS011;10135;50.702;7.276;2022-10-20T05:32:28;5.33;;;4.00;;
19946;SDS011;10135;50.702;7.276;2022-10-20T05:34:29;4.17;;;3.83;;
19946;SDS011;10135;50.702;7.276;2022-10-20T05:36:29;5.17;;;4.17;;
19946;SDS011;10135;50.702;7.276;2022-10-20T05:38:31;3.73;;;3.43;;
19946;SDS011;10135;50.702;7.276;2022-10-20T05:40:31;5.63;;;4.30;;
19946;SDS011;10135;50.702;7.276;2022-10-20T05:42:32;6.53;;;4.07;;
19946;SDS011;10135;50.702;7.276;2022-10-20T05:44:32;7.00;;;4.53;;
19946;SDS011;10135;50.702;7.276;2022-10-20T05:46:34;4.67;;;4.10;;
19946;SDS011;10135;50.702;7.276;2022-10-20T05:48:40;4.80;;;4.37;;
19946;SDS011;10135;50.702;7.276;2022-10-20T05:50:40;5.90;;;4.20;;
19946;SDS011;10135;50.702;7.276;2022-10-20T05:52:41;5.27;;;4.50;;
19946;SDS011;10135;50.702;7.276;2022-10-20T05:54:42;5.37;;;4.30;;
19946;SDS011;10135;50.702;7.276;2022-10-20T05:56:42;5.70;;;4.30;;
19946;SDS011;10135;50.702;7.276;2022-10-20T05:58:43;5.23;;;4.30;;
19946;SDS011;10135;50.702;7.276;2022-10-20T06:00:46;4.30;;;3.90;;
19946;SDS011;10135;50.702;7.276;2022-10-20T06:02:52;4.43;;;4.03;;
19946;SDS011;10135;50.702;7.276;2022-10-20T06:04:53;5.67;;;4.50;;
19946;SDS011;10135;50.702;7.276;2022-10-20T06:06:54;5.70;;;4.47;;
19946;SDS011;10135;50.702;7.276;2022-10-20T06:08:56;8.10;;;4.40;;
19946;SDS011;10135;50.702;7.276;2022-10-20T06:11:05;5.13;;;4.23;;
19946;SDS011;10135;50.702;7.276;2022-10-20T06:13:09;4.50;;;4.10;;
19946;SDS011;10135;50.702;7.276;2022-10-20T06:15:11;7.10;;;4.33;;
19946;SDS011;10135;50.702;7.276;2022-10-20T06:17:12;6.27;;;4.40;;
19946;SDS011;10135;50.702;7.276;2022-10-20T06:19:12;5.07;;;4.53;;
19946;SDS011;10135;50.702;7.276;2022-10-20T06:21:14;6.60;;;4.53;;
19946;SDS011;10135;50.702;7.276;2022-10-20T06:23:21;5.00;;;4.43;;
19946;SDS011;10135;50.702;7.276;2022-10-20T06:25:21;6.87;;;4.23;;
19946;SDS011;10135;50.702;7.276;2022-10-20T06:27:22;6.97;;;5.13;;
19946;SDS011;10135;50.702;7.276;2022-10-20T06:29:23;4.87;;;4.40;;
19946;SDS011;10135;50.702;7.276;2022-10-20T06:31:24;7.50;;;4.13;;
19946;SDS011;10135;50.702;7.276;2022-10-20T06:33:28;5.67;;;4.50;;
19946;SDS011;10135;50.702;7.276;2022-10-20T06:35:29;6.17;;;4.77;;
19946;SDS011;10135;50.702;7.276;2022-10-20T06:37:30;5.90;;;4.67;;
19946;SDS011;10135;50.702;7.276;2022-10-20T06:39:32;4.80;;;4.13;;
19946;SDS011;10135;50.702;7.276;2022-10-20T06:41:33;9.17;;;4.73;;
19946;SDS011;10135;50.702;7.276;2022-10-20T06:43:34;4.63;;;4.30;;
19946;SDS011;10135;50.702;7.276;2022-10-20T06:45:35;4.90;;;4.40;;
19946;SDS011;10135;50.702;7.276;2022-10-20T06:47:36;4.83;;;4.43;;
19946;SDS011;10135;50.702;7.276;2022-10-20T06:49:36;4.87;;;4.30;;
19946;SDS011;10135;50.702;7.276;2022-10-20T06:51:37;7.07;;;4.47;;
19946;SDS011;10135;50.702;7.276;2022-10-20T06:53:38;5.73;;;4.47;;
19946;SDS011;10135;50.702;7.276;2022-10-20T06:55:40;5.63;;;5.07;;
19946;SDS011;10135;50.702;7.276;2022-10-20T06:57:40;7.10;;;4.57;;
19946;SDS011;10135;50.702;7.276;2022-10-20T06:59:41;6.73;;;4.90;;
19946;SDS011;10135;50.702;7.276;2022-10-20T07:01:42;6.53;;;5.10;;
19946;SDS011;10135;50.702;7.276;2022-10-20T07:03:43;5.37;;;4.53;;
19946;SDS011;10135;50.702;7.276;2022-10-20T07:05:46;5.23;;;4.30;;
19946;SDS011;10135;50.702;7.276;2022-10-20T07:07:47;6.53;;;4.73;;
19946;SDS011;10135;50.702;7.276;2022-10-20T07:09:51;5.67;;;4.53;;
19946;SDS011;10135;50.702;7.276;2022-10-20T07:11:52;6.93;;;4.30;;
19946;SDS011;10135;50.702;7.276;2022-10-20T07:13:53;8.10;;;4.70;;
19946;SDS011;10135;50.702;7.276;2022-10-20T07:15:55;7.47;;;4.73;;
19946;SDS011;10135;50.702;7.276;2022-10-20T07:17:57;5.53;;;4.50;;
19946;SDS011;10135;50.702;7.276;2022-10-20T07:19:57;5.60;;;5.03;;
19946;SDS011;10135;50.702;7.276;2022-10-20T07:21:58;5.33;;;4.83;;
19946;SDS011;10135;50.702;7.276;2022-10-20T07:23:59;7.27;;;4.50;;
19946;SDS011;10135;50.702;7.276;2022-10-20T07:28:03;5.93;;;4.57;;
19946;SDS011;10135;50.702;7.276;2022-10-20T07:30:04;5.63;;;4.77;;
19946;SDS011;10135;50.702;7.276;2022-10-20T07:32:05;6.37;;;4.47;;
19946;SDS011;10135;50.702;7.276;2022-10-20T07:34:06;4.80;;;4.30;;
19946;SDS011;10135;50.702;7.276;2022-10-20T07:36:31;6.27;;;5.03;;
19946;SDS011;10135;50.702;7.276;2022-10-20T07:38:32;5.50;;;4.60;;
19946;SDS011;10135;50.702;7.276;2022-10-20T07:40:33;6.17;;;4.83;;
19946;SDS011;10135;50.702;7.276;2022-10-20T07:42:34;9.50;;;4.90;;
19946;SDS011;10135;50.702;7.276;2022-10-20T07:44:34;7.80;;;5.00;;
19946;SDS011;10135;50.702;7.276;2022-10-20T07:46:35;5.87;;;4.63;;
19946;SDS011;10135;50.702;7.276;2022-10-20T07:48:36;7.47;;;4.93;;
19946;SDS011;10135;50.702;7.276;2022-10-20T07:50:37;11.13;;;5.17;;
19946;SDS011;10135;50.702;7.276;2022-10-20T07:52:39;5.87;;;4.90;;
19946;SDS011;10135;50.702;7.276;2022-10-20T07:54:39;6.33;;;5.00;;
19946;SDS011;10135;50.702;7.276;2022-10-20T07:56:40;5.20;;;4.70;;
19946;SDS011;10135;50.702;7.276;2022-10-20T07:58:42;5.93;;;5.03;;
19946;SDS011;10135;50.702;7.276;2022-10-20T08:00:43;9.73;;;5.40;;
19946;SDS011;10135;50.702;7.276;2022-10-20T08:02:43;6.00;;;4.60;;
19946;SDS011;10135;50.702;7.276;2022-10-20T08:04:45;10.33;;;5.10;;
19946;SDS011;10135;50.702;7.276;2022-10-20T08:06:46;6.87;;;4.80;;
19946;SDS011;10135;50.702;7.276;2022-10-20T08:08:46;6.30;;;4.47;;
19946;SDS011;10135;50.702;7.276;2022-10-20T08:10:47;6.80;;;4.97;;
19946;SDS011;10135;50.702;7.276;2022-10-20T08:12:48;8.20;;;5.40;;
19946;SDS011;10135;50.702;7.276;2022-10-20T08:14:49;5.73;;;5.13;;
19946;SDS011;10135;50.702;7.276;2022-10-20T08:16:51;5.30;;;4.80;;
19946;SDS011;10135;50.702;7.276;2022-10-20T08:18:51;7.00;;;5.27;;
19946;SDS011;10135;50.702;7.276;2022-10-20T08:20:52;5.93;;;5.33;;
19946;SDS011;10135;50.702;7.276;2022-10-20T08:22:52;5.93;;;5.13;;
19946;SDS011;10135;50.702;7.276;2022-10-20T08:24:54;7.00;;;5.47;;
19946;SDS011;10135;50.702;7.276;2022-10-20T08:26:54;6.27;;;5.53;;
19946;SDS011;10135;50.702;7.276;2022-10-20T08:28:55;6.47;;;5.30;;
19946;SDS011;10135;50.702;7.276;2022-10-20T08:30:55;8.53;;;5.37;;
19946;SDS011;10135;50.702;7.276;2022-10-20T08:32:56;6.53;;;5.13;;
19946;SDS011;10135;50.702;7.276;2022-10-20T08:34:57;8.87;;;5.50;;
19946;SDS011;10135;50.702;7.276;2022-10-20T08:36:57;8.00;;;5.17;;
19946;SDS011;10135;50.702;7.276;2022-10-20T08:38:59;7.30;;;5.20;;
19946;SDS011;10135;50.702;7.276;2022-10-20T08:41:00;5.47;;;4.70;;
19946;SDS011;10135;50.702;7.276;2022-10-20T08:43:02;6.37;;;5.40;;
19946;SDS011;10135;50.702;7.276;2022-10-20T08:45:02;6.97;;;5.23;;
19946;SDS011;10135;50.702;7.276;2022-10-20T08:47:06;8.93;;;5.40;;
19946;SDS011;10135;50.702;7.276;2022-10-20T08:49:27;7.30;;;5.70;;
19946;SDS011;10135;50.702;7.276;2022-10-20T08:51:33;9.83;;;5.50;;
19946;SDS011;10135;50.702;7.276;2022-10-20T08:53:37;6.73;;;5.60;;
19946;SDS011;10135;50.702;7.276;2022-10-20T08:55:39;7.17;;;5.20;;
19946;SDS011;10135;50.702;7.276;2022-10-20T08:57:45;8.57;;;6.33;;
19946;SDS011;10135;50.702;7.276;2022-10-20T08:59:52;8.43;;;6.23;;
19946;SDS011;10135;50.702;7.276;2022-10-20T09:01:57;8.60;;;5.87;;
19946;SDS011;10135;50.702;7.276;2022-10-20T09:04:18;11.93;;;6.70;;
19946;SDS011;10135;50.702;7.276;2022-10-20T09:06:25;8.17;;;5.77;;
19946;SDS011;10135;50.702;7.276;2022-10-20T09:08:27;9.67;;;5.70;;
19946;SDS011;10135;50.702;7.276;2022-10-20T09:10:40;12.37;;;6.37;;
19946;SDS011;10135;50.702;7.276;2022-10-20T09:12:47;10.00;;;6.50;;
19946;SDS011;10135;50.702;7.276;2022-10-20T09:14:48;7.83;;;6.40;;
19946;SDS011;10135;50.702;7.276;2022-10-20T09:16:49;14.37;;;6.40;;
19946;SDS011;10135;50.702;7.276;2022-10-20T09:18:56;11.17;;;6.70;;
19946;SDS011;10135;50.702;7.276;2022-10-20T09:21:00;12.30;;;6.00;;
19946;SDS011;10135;50.702;7.276;2022-10-20T09:23:14;9.97;;;6.33;;
19946;SDS011;10135;50.702;7.276;2022-10-20T09:25:20;9.63;;;5.87;;
19946;SDS011;10135;50.702;7.276;2022-10-20T09:27:34;8.93;;;6.50;;
19946;SDS011;10135;50.702;7.276;2022-10-20T09:29:38;11.37;;;6.43;;
19946;SDS011;10135;50.702;7.276;2022-10-20T09:31:41;8.40;;;6.30;;
19946;SDS011;10135;50.702;7.276;2022-10-20T09:33:45;10.00;;;6.10;;
19946;SDS011;10135;50.702;7.276;2022-10-20T09:35:47;7.73;;;6.10;;
19946;SDS011;10135;50.702;7.276;2022-10-20T09:37:50;8.97;;;6.40;;
19946;SDS011;10135;50.702;7.276;2022-10-20T09:40:16;9.67;;;6.57;;
19946;SDS011;10135;50.702;7.276;2022-10-20T09:42:19;10.00;;;6.07;;
19946;SDS011;10135;50.702;7.276;2022-10-20T09:44:29;9.03;;;6.00;;
19946;SDS011;10135;50.702;7.276;2022-10-20T09:46:44;9.80;;;6.73;;
19946;SDS011;10135;50.702;7.276;2022-10-20T09:48:49;9.03;;;6.43;;
19946;SDS011;10135;50.702;7.276;2022-10-20T09:50:52;10.13;;;6.10;;
19946;SDS011;10135;50.702;7.276;2022-10-20T09:52:55;12.73;;;6.80;;
19946;SDS011;10135;50.702;7.276;2022-10-20T09:55:04;10.67;;;6.67;;
19946;SDS011;10135;50.702;7.276;2022-10-20T09:57:20;10.13;;;6.50;;
19946;SDS011;10135;50.702;7.276;2022-10-20T09:59:27;8.93;;;6.07;;
19946;SDS011;10135;50.702;7.276;2022-10-20T10:01:54;8.57;;;6.50;;
19946;SDS011;10135;50.702;7.276;2022-10-20T10:04:28;9.70;;;6.47;;
19946;SDS011;10135;50.702;7.276;2022-10-20T10:06:41;9.27;;;6.50;;
19946;SDS011;10135;50.702;7.276;2022-10-20T10:08:43;14.63;;;6.30;;
19946;SDS011;10135;50.702;7.276;2022-10-20T10:10:55;7.07;;;6.30;;
19946;SDS011;10135;50.702;7.276;2022-10-20T10:13:22;12.13;;;6.97;;
19946;SDS011;10135;50.702;7.276;2022-10-20T10:15:33;12.30;;;7.30;;
19946;SDS011;10135;50.702;7.276;2022-10-20T10:17:37;8.13;;;6.57;;
19946;SDS011;10135;50.702;7.276;2022-10-20T10:19:41;9.60;;;6.97;;
19946;SDS011;10135;50.702;7.276;2022-10-20T10:21:50;8.13;;;6.70;;
19946;SDS011;10135;50.702;7.276;2022-10-20T10:24:00;10.10;;;6.73;;
19946;SDS011;10135;50.702;7.276;2022-10-20T10:26:03;9.63;;;6.53;;
19946;SDS011;10135;50.702;7.276;2022-10-20T10:28:45;10.73;;;6.67;;
19946;SDS011;10135;50.702;7.276;2022-10-20T10:31:04;11.03;;;6.03;;
19946;SDS011;10135;50.702;7.276;2022-10-20T10:33:25;9.33;;;5.97;;
19946;SDS011;10135;50.702;7.276;2022-10-20T10:35:30;9.00;;;6.33;;
19946;SDS011;10135;50.702;7.276;2022-10-20T10:37:41;8.87;;;6.40;;
19946;SDS011;10135;50.702;7.276;2022-10-20T10:39:44;9.03;;;6.37;;
19946;SDS011;10135;50.702;7.276;2022-10-20T10:41:51;8.20;;;6.47;;
19946;SDS011;10135;50.702;7.276;2022-10-20T10:44:11;7.23;;;5.77;;
19946;SDS011;10135;50.702;7.276;2022-10-20T10:46:35;8.13;;;5.90;;
19946;SDS011;10135;50.702;7.276;2022-10-20T10:48:55;8.83;;;6.40;;
19946;SDS011;10135;50.702;7.276;2022-10-20T10:51:43;9.23;;;5.90;;
19946;SDS011;10135;50.702;7.276;2022-10-20T10:58:57;8.67;;;6.27;;
19946;SDS011;10135;50.702;7.276;2022-10-20T11:05:49;11.10;;;6.47;;
19946;SDS011;10135;50.702;7.276;2022-10-20T11:08:12;10.97;;;6.03;;
19946;SDS011;10135;50.702;7.276;2022-10-20T11:20:28;10.67;;;6.10;;
19946;SDS011;10135;50.702;7.276;2022-10-20T11:22:52;9.40;;;6.13;;
19946;SDS011;10135;50.702;7.276;2022-10-20T11:25:08;6.83;;;6.00;;
19946;SDS011;10135;50.702;7.276;2022-10-20T11:27:23;9.50;;;5.97;;
19946;SDS011;10135;50.702;7.276;2022-10-20T11:29:32;7.17;;;5.73;;
19946;SDS011;10135;50.702;7.276;2022-10-20T11:31:47;8.20;;;5.80;;
19946;SDS011;10135;50.702;7.276;2022-10-20T11:34:13;9.47;;;6.23;;
19946;SDS011;10135;50.702;7.276;2022-10-20T11:36:30;10.97;;;5.80;;
19946;SDS011;10135;50.702;7.276;2022-10-20T11:38:40;7.70;;;5.77;;
19946;SDS011;10135;50.702;7.276;2022-10-20T11:40:51;9.27;;;6.33;;
19946;SDS011;10135;50.702;7.276;2022-10-20T11:43:19;7.77;;;5.57;;
19946;SDS011;10135;50.702;7.276;2022-10-20T11:47:55;8.27;;;6.27;;
19946;SDS011;10135;50.702;7.276;2022-10-20T11:50:12;7.80;;;5.67;;
19946;SDS011;10135;50.702;7.276;2022-10-20T11:52:25;11.67;;;6.13;;
19946;SDS011;10135;50.702;7.276;2022-10-20T11:57:22;8.63;;;6.03;;
19946;SDS011;10135;50.702;7.276;2022-10-20T12:02:51;13.83;;;6.73;;
19946;SDS011;10135;50.702;7.276;2022-10-20T12:05:54;7.73;;;6.00;;
19946;SDS011;10135;50.702;7.276;2022-10-20T12:13:25;12.40;;;6.57;;
19946;SDS011;10135;50.702;7.276;2022-10-20T12:15:45;10.27;;;6.87;;
19946;SDS011;10135;50.702;7.276;2022-10-20T12:17:49;7.57;;;6.33;;
19946;SDS011;10135;50.702;7.276;2022-10-20T12:19:52;8.80;;;6.17;;
19946;SDS011;10135;50.702;7.276;2022-10-20T12:24:29;9.83;;;5.93;;
19946;SDS011;10135;50.702;7.276;2022-10-20T12:27:49;7.93;;;6.40;;
19946;SDS011;10135;50.702;7.276;2022-10-20T12:34:23;9.10;;;6.77;;
19946;SDS011;10135;50.702;7.276;2022-10-20T12:38:31;9.00;;;6.83;;
19946;SDS011;10135;50.702;7.276;2022-10-20T12:40:33;7.70;;;6.47;;
19946;SDS011;10135;50.702;7.276;2022-10-20T12:42:48;9.63;;;6.93;;
19946;SDS011;10135;50.702;7.276;2022-10-20T12:44:54;9.47;;;7.13;;
19946;SDS011;10135;50.702;7.276;2022-10-20T12:47:07;15.30;;;6.57;;
19946;SDS011;10135;50.702;7.276;2022-10-20T12:49:19;11.30;;;6.80;;
19946;SDS011;10135;50.702;7.276;2022-10-20T12:53:50;8.03;;;6.77;;
19946;SDS011;10135;50.702;7.276;2022-10-20T13:07:01;8.93;;;7.20;;
19946;SDS011;10135;50.702;7.276;2022-10-20T13:13:52;10.70;;;7.00;;
19946;SDS011;10135;50.702;7.276;2022-10-20T13:15:58;8.33;;;6.87;;
19946;SDS011;10135;50.702;7.276;2022-10-20T13:22:55;12.30;;;7.17;;
19946;SDS011;10135;50.702;7.276;2022-10-20T13:24:57;8.77;;;6.57;;
19946;SDS011;10135;50.702;7.276;2022-10-20T13:27:02;8.70;;;7.07;;
19946;SDS011;10135;50.702;7.276;2022-10-20T13:29:12;10.47;;;6.77;;
19946;SDS011;10135;50.702;7.276;2022-10-20T13:36:31;9.10;;;6.80;;
19946;SDS011;10135;50.702;7.276;2022-10-20T13:46:07;9.93;;;7.00;;
19946;SDS011;10135;50.702;7.276;2022-10-20T13:51:15;8.73;;;7.20;;
19946;SDS011;10135;50.702;7.276;2022-10-20T13:53:23;9.77;;;7.27;;
19946;SDS011;10135;50.702;7.276;2022-10-20T13:55:30;10.13;;;7.10;;
19946;SDS011;10135;50.702;7.276;2022-10-20T13:58:03;10.50;;;7.50;;
19946;SDS011;10135;50.702;7.276;2022-10-20T14:00:17;11.57;;;7.10;;
19946;SDS011;10135;50.702;7.276;2022-10-20T14:02:31;14.53;;;7.60;;
19946;SDS011;10135;50.702;7.276;2022-10-20T14:04:34;11.60;;;7.90;;
19946;SDS011;10135;50.702;7.276;2022-10-20T14:06:36;12.07;;;7.63;;
19946;SDS011;10135;50.702;7.276;2022-10-20T14:08:43;10.80;;;7.80;;
19946;SDS011;10135;50.702;7.276;2022-10-20T14:10:47;12.03;;;8.40;;
19946;SDS011;10135;50.702;7.276;2022-10-20T14:12:55;10.73;;;8.20;;
19946;SDS011;10135;50.702;7.276;2022-10-20T14:14:56;14.00;;;8.80;;
19946;SDS011;10135;50.702;7.276;2022-10-20T14:16:59;10.33;;;8.27;;
19946;SDS011;10135;50.702;7.276;2022-10-20T14:21:17;10.87;;;8.10;;
19946;SDS011;10135;50.702;7.276;2022-10-20T14:23:18;13.60;;;8.27;;
19946;SDS011;10135;50.702;7.276;2022-10-20T14:25:20;12.50;;;7.90;;
19946;SDS011;10135;50.702;7.276;2022-10-20T14:27:25;11.63;;;8.20;;
19946;SDS011;10135;50.702;7.276;2022-10-20T14:29:33;15.40;;;8.83;;
19946;SDS011;10135;50.702;7.276;2022-10-20T14:31:38;12.10;;;8.03;;
19946;SDS011;10135;50.702;7.276;2022-10-20T14:33:41;12.57;;;8.20;;
19946;SDS011;10135;50.702;7.276;2022-10-20T14:35:52;13.80;;;8.80;;
19946;SDS011;10135;50.702;7.276;2022-10-20T14:40:06;12.03;;;8.60;;
19946;SDS011;10135;50.702;7.276;2022-10-20T14:42:32;12.63;;;8.03;;
19946;SDS011;10135;50.702;7.276;2022-10-20T14:44:33;13.90;;;8.33;;
19946;SDS011;10135;50.702;7.276;2022-10-20T14:48:43;13.43;;;7.80;;
19946;SDS011;10135;50.702;7.276;2022-10-20T14:50:47;10.10;;;8.13;;
19946;SDS011;10135;50.702;7.276;2022-10-20T14:52:48;11.83;;;8.30;;
19946;SDS011;10135;50.702;7.276;2022-10-20T14:54:49;12.37;;;8.20;;
19946;SDS011;10135;50.702;7.276;2022-10-20T14:56:51;13.47;;;8.60;;
19946;SDS011;10135;50.702;7.276;2022-10-20T14:59:01;14.00;;;8.40;;
19946;SDS011;10135;50.702;7.276;2022-10-20T15:01:19;14.33;;;9.00;;
19946;SDS011;10135;50.702;7.276;2022-10-20T15:03:34;13.17;;;8.60;;
19946;SDS011;10135;50.702;7.276;2022-10-20T15:05:37;10.93;;;8.63;;
19946;SDS011;10135;50.702;7.276;2022-10-20T15:07:40;11.23;;;8.10;;
19946;SDS011;10135;50.702;7.276;2022-10-20T15:09:53;14.67;;;8.87;;
19946;SDS011;10135;50.702;7.276;2022-10-20T15:12:03;14.30;;;8.77;;
19946;SDS011;10135;50.702;7.276;2022-10-20T15:14:11;13.43;;;8.47;;
19946;SDS011;10135;50.702;7.276;2022-10-20T15:16:32;10.73;;;8.77;;
19946;SDS011;10135;50.702;7.276;2022-10-20T15:18:46;11.60;;;8.30;;
19946;SDS011;10135;50.702;7.276;2022-10-20T15:20:47;12.00;;;8.53;;
19946;SDS011;10135;50.702;7.276;2022-10-20T15:22:49;14.03;;;9.03;;
19946;SDS011;10135;50.702;7.276;2022-10-20T15:24:50;13.60;;;8.80;;
19946;SDS011;10135;50.702;7.276;2022-10-20T15:26:51;12.73;;;8.67;;
19946;SDS011;10135;50.702;7.276;2022-10-20T15:28:51;12.67;;;8.57;;
19946;SDS011;10135;50.702;7.276;2022-10-20T15:30:52;12.50;;;8.60;;
19946;SDS011;10135;50.702;7.276;2022-10-20T15:32:53;15.33;;;8.70;;
19946;SDS011;10135;50.702;7.276;2022-10-20T15:34:54;15.30;;;8.40;;
19946;SDS011;10135;50.702;7.276;2022-10-20T15:36:55;12.60;;;8.23;;
19946;SDS011;10135;50.702;7.276;2022-10-20T15:38:55;11.30;;;8.47;;
19946;SDS011;10135;50.702;7.276;2022-10-20T15:40:58;13.97;;;8.50;;
19946;SDS011;10135;50.702;7.276;2022-10-20T15:43:00;11.60;;;8.50;;
19946;SDS011;10135;50.702;7.276;2022-10-20T15:45:01;14.87;;;9.20;;
19946;SDS011;10135;50.702;7.276;2022-10-20T15:47:11;11.23;;;8.37;;
19946;SDS011;10135;50.702;7.276;2022-10-20T15:49:12;13.90;;;8.77;;
19946;SDS011;10135;50.702;7.276;2022-10-20T15:53:16;9.90;;;8.23;;
19946;SDS011;10135;50.702;7.276;2022-10-20T15:55:21;13.87;;;8.73;;
19946;SDS011;10135;50.702;7.276;2022-10-20T15:57:29;12.97;;;8.93;;
19946;SDS011;10135;50.702;7.276;2022-10-20T15:59:29;11.30;;;8.40;;
19946;SDS011;10135;50.702;7.276;2022-10-20T16:01:30;13.63;;;8.40;;
19946;SDS011;10135;50.702;7.276;2022-10-20T16:03:31;14.53;;;8.13;;
19946;SDS011;10135;50.702;7.276;2022-10-20T16:05:31;12.27;;;8.10;;
19946;SDS011;10135;50.702;7.276;2022-10-20T16:07:32;10.00;;;8.10;;
19946;SDS011;10135;50.702;7.276;2022-10-20T16:09:33;10.43;;;8.40;;
19946;SDS011;10135;50.702;7.276;2022-10-20T16:11:34;12.70;;;8.63;;
19946;SDS011;10135;50.702;7.276;2022-10-20T16:13:34;11.87;;;8.40;;
19946;SDS011;10135;50.702;7.276;2022-10-20T16:15:38;12.27;;;8.70;;
19946;SDS011;10135;50.702;7.276;2022-10-20T16:17:39;11.67;;;8.10;;
19946;SDS011;10135;50.702;7.276;2022-10-20T16:19:40;12.33;;;8.67;;
19946;SDS011;10135;50.702;7.276;2022-10-20T16:21:40;12.60;;;7.90;;
19946;SDS011;10135;50.702;7.276;2022-10-20T16:23:41;12.83;;;8.73;;
19946;SDS011;10135;50.702;7.276;2022-10-20T16:25:41;10.77;;;8.13;;
19946;SDS011;10135;50.702;7.276;2022-10-20T16:27:42;12.10;;;8.03;;
19946;SDS011;10135;50.702;7.276;2022-10-20T16:29:43;11.67;;;8.27;;
19946;SDS011;10135;50.702;7.276;2022-10-20T16:31:44;16.90;;;8.10;;
19946;SDS011;10135;50.702;7.276;2022-10-20T16:33:46;13.83;;;8.07;;
19946;SDS011;10135;50.702;7.276;2022-10-20T16:35:47;11.23;;;8.03;;
19946;SDS011;10135;50.702;7.276;2022-10-20T16:37:48;10.73;;;7.67;;
19946;SDS011;10135;50.702;7.276;2022-10-20T16:39:48;11.43;;;8.47;;
19946;SDS011;10135;50.702;7.276;2022-10-20T16:41:49;11.23;;;8.13;;
19946;SDS011;10135;50.702;7.276;2022-10-20T16:43:50;11.60;;;7.90;;
19946;SDS011;10135;50.702;7.276;2022-10-20T16:45:51;13.17;;;8.73;;
19946;SDS011;10135;50.702;7.276;2022-10-20T16:47:51;15.77;;;8.23;;
19946;SDS011;10135;50.702;7.276;2022-10-20T16:49:52;10.60;;;7.90;;
19946;SDS011;10135;50.702;7.276;2022-10-20T16:51:53;12.20;;;8.57;;
19946;SDS011;10135;50.702;7.276;2022-10-20T16:53:53;12.03;;;8.30;;
19946;SDS011;10135;50.702;7.276;2022-10-20T16:55:55;12.17;;;8.53;;
19946;SDS011;10135;50.702;7.276;2022-10-20T16:57:56;11.53;;;8.00;;
19946;SDS011;10135;50.702;7.276;2022-10-20T16:59:56;10.47;;;8.00;;
19946;SDS011;10135;50.702;7.276;2022-10-20T17:01:59;12.00;;;8.43;;
19946;SDS011;10135;50.702;7.276;2022-10-20T17:03:59;12.90;;;8.23;;
19946;SDS011;10135;50.702;7.276;2022-10-20T17:06:03;14.67;;;8.27;;
19946;SDS011;10135;50.702;7.276;2022-10-20T17:08:06;13.87;;;8.27;;
19946;SDS011;10135;50.702;7.276;2022-10-20T17:10:07;14.00;;;8.60;;
19946;SDS011;10135;50.702;7.276;2022-10-20T17:12:09;11.73;;;8.67;;
19946;SDS011;10135;50.702;7.276;2022-10-20T17:14:10;11.23;;;7.57;;
19946;SDS011;10135;50.702;7.276;2022-10-20T17:16:16;11.30;;;8.50;;
19946;SDS011;10135;50.702;7.276;2022-10-20T17:18:20;10.23;;;7.93;;
19946;SDS011;10135;50.702;7.276;2022-10-20T17:20:22;9.63;;;7.60;;
19946;SDS011;10135;50.702;7.276;2022-10-20T17:22:23;15.27;;;8.77;;
19946;SDS011;10135;50.702;7.276;2022-10-20T17:24:24;11.73;;;8.00;;
19946;SDS011;10135;50.702;7.276;2022-10-20T17:26:25;13.50;;;8.20;;
19946;SDS011;10135;50.702;7.276;2022-10-20T17:28:29;10.40;;;8.47;;
19946;SDS011;10135;50.702;7.276;2022-10-20T17:30:32;16.93;;;8.10;;
19946;SDS011;10135;50.702;7.276;2022-10-20T17:32:33;9.47;;;7.40;;
19946;SDS011;10135;50.702;7.276;2022-10-20T17:34:33;10.63;;;8.30;;
19946;SDS011;10135;50.702;7.276;2022-10-20T17:36:34;14.37;;;8.33;;
19946;SDS011;10135;50.702;7.276;2022-10-20T17:38:35;14.20;;;8.30;;
19946;SDS011;10135;50.702;7.276;2022-10-20T17:40:36;9.40;;;8.20;;
19946;SDS011;10135;50.702;7.276;2022-10-20T17:42:37;11.20;;;8.13;;
19946;SDS011;10135;50.702;7.276;2022-10-20T17:44:37;13.00;;;8.17;;
19946;SDS011;10135;50.702;7.276;2022-10-20T17:46:38;13.67;;;8.73;;
19946;SDS011;10135;50.702;7.276;2022-10-20T17:48:41;9.43;;;7.97;;
19946;SDS011;10135;50.702;7.276;2022-10-20T17:50:42;12.63;;;8.00;;
19946;SDS011;10135;50.702;7.276;2022-10-20T17:52:43;12.37;;;8.60;;
19946;SDS011;10135;50.702;7.276;2022-10-20T17:54:43;10.03;;;8.00;;
19946;SDS011;10135;50.702;7.276;2022-10-20T17:56:44;11.10;;;7.77;;
19946;SDS011;10135;50.702;7.276;2022-10-20T17:58:47;13.57;;;8.67;;
19946;SDS011;10135;50.702;7.276;2022-10-20T18:00:50;10.50;;;8.10;;
19946;SDS011;10135;50.702;7.276;2022-10-20T18:02:50;10.40;;;8.23;;
19946;SDS011;10135;50.702;7.276;2022-10-20T18:04:51;10.93;;;8.67;;
19946;SDS011;10135;50.702;7.276;2022-10-20T18:06:52;12.03;;;7.67;;
19946;SDS011;10135;50.702;7.276;2022-10-20T18:08:53;13.50;;;8.00;;
19946;SDS011;10135;50.702;7.276;2022-10-20T18:10:58;11.83;;;8.40;;
19946;SDS011;10135;50.702;7.276;2022-10-20T18:12:58;14.47;;;8.17;;
19946;SDS011;10135;50.702;7.276;2022-10-20T18:14:59;10.50;;;7.97;;
19946;SDS011;10135;50.702;7.276;2022-10-20T18:17:00;11.57;;;8.80;;
19946;SDS011;10135;50.702;7.276;2022-10-20T18:19:01;11.07;;;7.83;;
19946;SDS011;10135;50.702;7.276;2022-10-20T18:21:03;11.07;;;8.17;;
19946;SDS011;10135;50.702;7.276;2022-10-20T18:23:05;9.37;;;7.70;;
19946;SDS011;10135;50.702;7.276;2022-10-20T18:25:05;11.43;;;8.23;;
19946;SDS011;10135;50.702;7.276;2022-10-20T18:27:07;11.90;;;8.37;;
19946;SDS011;10135;50.702;7.276;2022-10-20T18:29:08;11.50;;;8.90;;
19946;SDS011;10135;50.702;7.276;2022-10-20T18:31:11;11.57;;;8.37;;
19946;SDS011;10135;50.702;7.276;2022-10-20T18:33:17;12.20;;;8.90;;
19946;SDS011;10135;50.702;7.276;2022-10-20T18:35:17;11.40;;;8.47;;
19946;SDS011;10135;50.702;7.276;2022-10-20T18:37:18;10.60;;;8.37;;
19946;SDS011;10135;50.702;7.276;2022-10-20T18:39:19;12.07;;;8.53;;
19946;SDS011;10135;50.702;7.276;2022-10-20T18:41:21;10.33;;;8.03;;
19946;SDS011;10135;50.702;7.276;2022-10-20T18:43:26;11.50;;;8.77;;
19946;SDS011;10135;50.702;7.276;2022-10-20T18:45:26;11.83;;;7.93;;
19946;SDS011;10135;50.702;7.276;2022-10-20T18:47:27;11.47;;;8.37;;
19946;SDS011;10135;50.702;7.276;2022-10-20T18:49:28;12.90;;;8.87;;
19946;SDS011;10135;50.702;7.276;2022-10-20T18:51:29;10.13;;;7.80;;
19946;SDS011;10135;50.702;7.276;2022-10-20T18:53:32;12.77;;;8.70;;
19946;SDS011;10135;50.702;7.276;2022-10-20T18:55:36;13.77;;;8.70;;
19946;SDS011;10135;50.702;7.276;2022-10-20T18:57:36;12.83;;;8.17;;
19946;SDS011;10135;50.702;7.276;2022-10-20T18:59:37;15.37;;;9.50;;
19946;SDS011;10135;50.702;7.276;2022-10-20T19:01:38;12.30;;;8.10;;
19946;SDS011;10135;50.702;7.276;2022-10-20T19:03:40;14.17;;;8.07;;
19946;SDS011;10135;50.702;7.276;2022-10-20T19:05:44;11.87;;;8.40;;
19946;SDS011;10135;50.702;7.276;2022-10-20T19:07:45;10.57;;;8.47;;
19946;SDS011;10135;50.702;7.276;2022-10-20T19:09:46;13.83;;;9.60;;
19946;SDS011;10135;50.702;7.276;2022-10-20T19:11:47;12.73;;;9.13;;
19946;SDS011;10135;50.702;7.276;2022-10-20T19:13:48;13.20;;;8.20;;
19946;SDS011;10135;50.702;7.276;2022-10-20T19:15:49;12.00;;;9.20;;
19946;SDS011;10135;50.702;7.276;2022-10-20T19:17:51;11.00;;;8.53;;
19946;SDS011;10135;50.702;7.276;2022-10-20T19:19:52;12.67;;;9.23;;
19946;SDS011;10135;50.702;7.276;2022-10-20T19:21:53;16.10;;;9.37;;
19946;SDS011;10135;50.702;7.276;2022-10-20T19:24:01;10.67;;;8.37;;
19946;SDS011;10135;50.702;7.276;2022-10-20T19:28:16;11.07;;;8.70;;
19946;SDS011;10135;50.702;7.276;2022-10-20T19:30:17;10.37;;;8.23;;
19946;SDS011;10135;50.702;7.276;2022-10-20T19:32:18;11.53;;;9.03;;